Liberty — WDC5845 — position and weather

sailwx.info

Track history (hours):
 
Tides and Currents Weather Stations Pressure Air Temp Water Temp Dewpoint Dewpoint Depression Visibility Wind Speed Wind Dir Waves Ship Positions

Liberty

Owner: Tidewater Barge Lines Inc., Vancouver, WA. More information available from US FCC via Universal Licensing System and Coast Guard Vessel Documentation Center.

Last reported at 2018-Feb-23 18:30 UTC. Time now 2018-Feb-23 18:45 UTC.
Position N 46°04' W 122°53'.

Length 34 m; draft 3 m.

Type: Towing. MMSI: 2142822.

Date/timePositionNaut miles runAvg speedWind from/ knotsBaromVisibWave heightAir tempDewpointWater temp
2018-Feb-23 18:30N 46°04' W 122°53'5 9.6
2018-Feb-23 18:00N 45°59' W 122°50'0 0.0
2018-Feb-23 17:30N 45°59' W 122°50'0 0.0
2018-Feb-23 17:00N 45°59' W 122°50'0 0.0
2018-Feb-23 16:30N 45°59' W 122°50'0 0.0
2018-Feb-23 16:00N 45°59' W 122°50'0 0.0
2018-Feb-23 15:30N 45°59' W 122°50'0 0.0
2018-Feb-23 15:00N 45°59' W 122°50'0 0.0
2018-Feb-23 14:30N 45°59' W 122°50'0 0.0
2018-Feb-23 14:00N 45°59' W 122°50'0 0.0
2018-Feb-23 13:30N 45°59' W 122°50'0 0.0
2018-Feb-23 13:00N 45°59' W 122°50'0 0.0
2018-Feb-23 12:30N 45°59' W 122°50'0 0.9
2018-Feb-23 12:00N 45°59' W 122°50'4 8.6
2018-Feb-23 11:30N 45°55' W 122°49'6 8.7
2018-Feb-23 10:48N 45°49' W 122°48'4 8.5
2018-Feb-23 10:22N 45°45' W 122°46'3 8.8
2018-Feb-23 10:00N 45°42' W 122°46'5 6.8
2018-Feb-23 09:15N 45°37' W 122°47'0 0.0
2018-Feb-23 09:00N 45°37' W 122°47'1 2.9
2018-Feb-23 08:30N 45°38' W 122°47'2 3.3
2018-Feb-23 08:00N 45°38' W 122°44'0 0.1
2018-Feb-23 07:16N 45°39' W 122°44'1 4.5
2018-Feb-23 07:00N 45°39' W 122°46'2 3.9
2018-Feb-23 06:27N 45°37' W 122°47'0 0.4
2018-Feb-23 06:00N 45°37' W 122°47'0 0.4
2018-Feb-23 05:30N 45°37' W 122°47'2 4.3
2018-Feb-23 05:00N 45°39' W 122°46'3 6.8
2018-Feb-23 04:30N 45°43' W 122°46'3 6.9
2018-Feb-23 04:00N 45°46' W 122°46'4 6.8
2018-Feb-23 03:27N 45°50' W 122°48'3 6.6
2018-Feb-23 03:00N 45°53' W 122°48'3 6.3
2018-Feb-23 02:29N 45°56' W 122°48'3 6.5
2018-Feb-23 02:00N 45°59' W 122°50'5 6.5
2018-Feb-23 01:15N 46°03' W 122°53'1 6.1
2018-Feb-23 01:00N 46°05' W 122°54'3 6.3
2018-Feb-23 00:30N 46°06' W 122°58'4 6.2
2018-Feb-22 23:54N 46°09' W 123°02'2 6.1
2018-Feb-22 23:30N 46°10' W 123°05'3 5.9
2018-Feb-22 23:00N 46°11' W 123°09'3 5.7
2018-Feb-22 22:30N 46°10' W 123°13'3 5.4
2018-Feb-22 22:00N 46°09' W 123°16'4 6.2
2018-Feb-22 21:26N 46°09' W 123°21'2 5.7
2018-Feb-22 21:00N 46°10' W 123°24'0 0.4
2018-Feb-22 20:31N 46°10' W 123°24'5 8.2
2018-Feb-22 19:57N 46°09' W 123°18'512.2
2018-Feb-22 19:30N 46°11' W 123°11'1011.2
2018-Feb-22 18:39N 46°07' W 122°58'211.4
2018-Feb-22 18:30N 46°06' W 122°57'510.3
2018-Feb-22 18:00N 46°01' W 122°52'3 5.3
2018-Feb-22 17:30N 45°59' W 122°50'0 0.3
2018-Feb-22 17:00N 45°59' W 122°50'0 0.8
2018-Feb-22 16:30N 45°59' W 122°51'0 0.0
2018-Feb-22 16:00N 45°59' W 122°51'0 0.0
2018-Feb-22 15:30N 45°59' W 122°51'0 0.0
2018-Feb-22 15:00N 45°59' W 122°51'0 0.0
2018-Feb-22 14:30N 45°59' W 122°51'0 0.0
2018-Feb-22 14:00N 45°59' W 122°51'0 0.0
2018-Feb-22 13:30N 45°59' W 122°51'1 1.9
2018-Feb-22 13:00N 46°00' W 122°51'2 2.4
2018-Feb-22 12:23N 46°02' W 122°52'0 0.6
2018-Feb-22 12:00N 46°01' W 122°52'2 4.6
2018-Feb-22 11:29N 45°59' W 122°50'1 3.1
2018-Feb-22 11:00N 45°58' W 122°49'5 9.2
2018-Feb-22 10:30N 45°54' W 122°48'5 9.2
2018-Feb-22 10:00N 45°49' W 122°48'5 9.1
2018-Feb-22 09:31N 45°45' W 122°46'5 9.1
2018-Feb-22 09:00N 45°40' W 122°46'1 1.8
2018-Feb-22 08:30N 45°39' W 122°45'0 0.2
2018-Feb-22 08:00N 45°39' W 122°45'3 5.3
2018-Feb-22 07:30N 45°37' W 122°47'0 0.2
2018-Feb-22 07:00N 45°37' W 122°47'0 0.1
2018-Feb-22 06:30N 45°37' W 122°47'1 2.1
2018-Feb-22 06:00N 45°38' W 122°47'2 4.3
2018-Feb-22 05:30N 45°40' W 122°46'3 6.2
2018-Feb-22 05:00N 45°43' W 122°46'3 6.5
2018-Feb-22 04:30N 45°47' W 122°46'3 6.4
2018-Feb-22 04:00N 45°50' W 122°47'3 6.3
2018-Feb-22 03:30N 45°53' W 122°48'3 6.5
2018-Feb-22 03:00N 45°56' W 122°48'3 6.5
2018-Feb-22 02:30N 45°59' W 122°51'3 6.4
2018-Feb-22 02:01N 46°02' W 122°53'3 6.2
2018-Feb-22 01:30N 46°05' W 122°54'3 6.2
2018-Feb-22 01:00N 46°07' W 122°58'3 6.2
2018-Feb-22 00:30N 46°08' W 123°02'3 6.1
2018-Feb-22 00:01N 46°10' W 123°05'3 6.0
2018-Feb-21 23:30N 46°11' W 123°09'3 6.0
2018-Feb-21 23:00N 46°10' W 123°13'3 5.1
2018-Feb-21 22:30N 46°09' W 123°16'3 5.5
2018-Feb-21 22:00N 46°09' W 123°20'3 5.7
2018-Feb-21 21:31N 46°10' W 123°24'0 0.9
2018-Feb-21 21:00N 46°10' W 123°25'0 0.1
2018-Feb-21 20:31N 46°10' W 123°25'0 0.0
2018-Feb-21 20:00N 46°10' W 123°25'0 0.0
2018-Feb-21 19:30N 46°10' W 123°25'0 0.0
2018-Feb-21 19:00N 46°10' W 123°25'0 0.0
2018-Feb-21 18:26N 46°10' W 123°25'0 0.0
2018-Feb-21 17:52N 46°10' W 123°25'0 0.2
2018-Feb-21 17:29N 46°10' W 123°25'1 1.2
2018-Feb-21 17:00N 46°09' W 123°24'3 6.5
2018-Feb-21 16:30N 46°09' W 123°19'3 6.4
2018-Feb-21 16:00N 46°09' W 123°15'3 6.3
2018-Feb-21 15:30N 46°11' W 123°11'3 5.5
2018-Feb-21 15:00N 46°11' W 123°07'3 5.6
2018-Feb-21 14:30N 46°09' W 123°04'3 5.6
2018-Feb-21 14:00N 46°08' W 123°00'3 6.1
2018-Feb-21 13:30N 46°06' W 122°57'2 4.9
2018-Feb-21 13:00N 46°05' W 122°54'2 4.3
2018-Feb-21 12:30N 46°03' W 122°53'2 4.9
2018-Feb-21 12:00N 46°00' W 122°51'2 4.9
2018-Feb-21 11:30N 45°58' W 122°50'3 5.2
2018-Feb-21 11:00N 45°56' W 122°48'1 2.2
2018-Feb-21 10:30N 45°55' W 122°49'0 0.0
2018-Feb-21 10:00N 45°55' W 122°49'1 1.8
2018-Feb-21 09:30N 45°54' W 122°48'5 9.5
2018-Feb-21 09:00N 45°49' W 122°48'7 9.4
2018-Feb-21 08:15N 45°42' W 122°46'2 8.9
2018-Feb-21 08:00N 45°40' W 122°46'1 2.0
2018-Feb-21 07:28N 45°39' W 122°45'2 2.6
2018-Feb-21 06:32N 45°37' W 122°47'0 0.0
2018-Feb-21 06:30N 45°37' W 122°47'0 0.0
2018-Feb-21 06:00N 45°37' W 122°47'3 6.9
2018-Feb-21 05:30N 45°34' W 122°45'2 3.7
2018-Feb-21 05:00N 45°33' W 122°43'1 2.5
2018-Feb-21 04:27N 45°34' W 122°44'0 0.0
2018-Feb-21 04:00N 45°34' W 122°44'0 0.0
2018-Feb-21 03:30N 45°34' W 122°44'0 0.0
2018-Feb-21 03:00N 45°34' W 122°44'0 0.0
2018-Feb-21 02:30N 45°34' W 122°44'0 0.0
2018-Feb-21 02:00N 45°34' W 122°44'0 0.7
2018-Feb-21 01:30N 45°34' W 122°44'3 6.2
2018-Feb-21 01:00N 45°32' W 122°40'4 7.6
2018-Feb-21 00:30N 45°34' W 122°44'4 8.2
2018-Feb-21 00:00N 45°38' W 122°47'2 4.3
2018-Feb-20 23:30N 45°39' W 122°45'0 0.4
2018-Feb-20 23:00N 45°39' W 122°45'4 5.6
2018-Feb-20 22:23N 45°36' W 122°46'2 5.7
2018-Feb-20 22:00N 45°34' W 122°44'3 5.4
2018-Feb-20 21:30N 45°36' W 122°47'3 6.3
2018-Feb-20 21:00N 45°39' W 122°45'0 0.3
2018-Feb-20 20:30N 45°39' W 122°45'0 0.3
2018-Feb-20 20:00N 45°39' W 122°44'0 0.0
2018-Feb-20 19:30N 45°39' W 122°44'0 0.0
2018-Feb-20 19:00N 45°39' W 122°44'0 0.0
2018-Feb-20 18:30N 45°39' W 122°44'0 0.0
2018-Feb-20 18:00N 45°39' W 122°44'0 0.0
2018-Feb-20 17:30N 45°39' W 122°44'0 0.6
2018-Feb-20 17:00N 45°39' W 122°44'1 1.2
2018-Feb-20 16:30N 45°39' W 122°45'3 5.6
2018-Feb-20 16:00N 45°36' W 122°47'4 7.0
2018-Feb-20 15:26N 45°34' W 122°43'2 5.4
2018-Feb-20 15:00N 45°32' W 122°40'0 0.0
2018-Feb-20 14:30N 45°32' W 122°40'2 4.3
2018-Feb-20 14:00N 45°33' W 122°43'1 2.0
2018-Feb-20 13:30N 45°34' W 122°44'0 0.0
2018-Feb-20 13:00N 45°34' W 122°44'0 0.0
2018-Feb-20 12:30N 45°34' W 122°44'0 0.0
2018-Feb-20 12:00N 45°34' W 122°44'2 3.5
2018-Feb-20 11:30N 45°35' W 122°46'2 4.6
2018-Feb-20 11:00N 45°37' W 122°47'0 0.2
2018-Feb-20 10:30N 45°37' W 122°47'3 6.1
2018-Feb-20 10:00N 45°40' W 122°46'3 6.5
2018-Feb-20 09:30N 45°43' W 122°46'3 6.6
2018-Feb-20 09:00N 45°47' W 122°46'3 6.4
2018-Feb-20 08:30N 45°50' W 122°48'3 6.1
2018-Feb-20 08:00N 45°53' W 122°48'3 6.0
2018-Feb-20 07:30N 45°56' W 122°48'3 6.1
2018-Feb-20 07:00N 45°59' W 122°50'3 6.3
2018-Feb-20 06:30N 46°01' W 122°52'3 6.1
2018-Feb-20 06:00N 46°04' W 122°54'3 6.1
2018-Feb-20 05:30N 46°06' W 122°57'3 6.4
2018-Feb-20 05:00N 46°08' W 123°01'3 6.2
2018-Feb-20 04:30N 46°10' W 123°05'3 6.3
2018-Feb-20 04:00N 46°11' W 123°09'3 6.3
2018-Feb-20 03:30N 46°10' W 123°13'3 6.3
2018-Feb-20 03:00N 46°09' W 123°17'3 6.9
2018-Feb-20 02:30N 46°09' W 123°22'2 3.4
2018-Feb-20 02:00N 46°10' W 123°24'2 4.3
2018-Feb-20 01:30N 46°09' W 123°22'5 9.9
2018-Feb-20 01:00N 46°10' W 123°15'5 9.6
2018-Feb-20 00:30N 46°11' W 123°08'5 9.9
2018-Feb-20 00:00N 46°09' W 123°02'510.6
2018-Feb-19 23:30N 46°06' W 122°55'510.6
2018-Feb-19 23:00N 46°01' W 122°52'511.0
2018-Feb-19 22:30N 45°56' W 122°48'611.2
2018-Feb-19 22:00N 45°50' W 122°47'510.6
2018-Feb-19 21:30N 45°45' W 122°46'510.7
2018-Feb-19 21:00N 45°40' W 122°46'3 5.8
2018-Feb-19 20:30N 45°37' W 122°47'3 5.3
2018-Feb-19 20:00N 45°39' W 122°44'0 0.0
2018-Feb-19 18:58N 45°39' W 122°44'0 0.0
2018-Feb-19 18:10N 45°39' W 122°44'0 0.0
2018-Feb-19 18:00N 45°39' W 122°44'0 0.0
2018-Feb-19 17:30N 45°39' W 122°44'0 0.0
2018-Feb-19 17:00N 45°39' W 122°44'0 0.0
2018-Feb-19 16:30N 45°39' W 122°44'0 0.0
2018-Feb-19 16:00N 45°39' W 122°44'0 0.0
2018-Feb-19 15:28N 45°39' W 122°44'0 0.0
2018-Feb-19 15:00N 45°39' W 122°44'0 0.0
2018-Feb-19 14:30N 45°39' W 122°44'0 0.0
2018-Feb-19 14:00N 45°39' W 122°44'0 0.0
2018-Feb-19 13:30N 45°39' W 122°44'0 0.0
2018-Feb-19 13:00N 45°39' W 122°44'0 0.0
2018-Feb-19 12:30N 45°39' W 122°44'0 0.0
2018-Feb-19 12:00N 45°39' W 122°44'0 0.0
2018-Feb-19 10:49N 45°39' W 122°44'0 0.0
2018-Feb-19 10:30N 45°39' W 122°44'0 0.0
2018-Feb-19 10:00N 45°39' W 122°44'0 0.0
2018-Feb-19 09:19N 45°39' W 122°44'0 0.1
2018-Feb-19 09:00N 45°39' W 122°44'0 0.9
2018-Feb-19 08:30N 45°39' W 122°45'3 6.3
2018-Feb-19 08:00N 45°36' W 122°47'4 8.0
2018-Feb-19 07:30N 45°33' W 122°43'3 5.1
2018-Feb-19 06:57N 45°35' W 122°46'2 5.4
2018-Feb-19 06:30N 45°37' W 122°47'0 0.5
2018-Feb-19 06:00N 45°37' W 122°47'0 0.2
2018-Feb-19 05:18N 45°37' W 122°47'2 6.1
2018-Feb-19 05:00N 45°39' W 122°46'3 5.7
2018-Feb-19 04:29N 45°42' W 122°46'3 5.7
2018-Feb-19 04:00N 45°45' W 122°46'3 5.8
2018-Feb-19 03:30N 45°47' W 122°47'3 5.7
2018-Feb-19 03:00N 45°50' W 122°47'3 5.7
2018-Feb-19 02:30N 45°53' W 122°48'3 6.0
2018-Feb-19 02:00N 45°56' W 122°48'3 6.0
2018-Feb-19 01:30N 45°59' W 122°50'3 6.3
2018-Feb-19 01:00N 46°01' W 122°52'3 6.2
2018-Feb-19 00:30N 46°04' W 122°54'3 6.1
2018-Feb-19 00:00N 46°06' W 122°57'3 6.1
2018-Feb-18 23:30N 46°08' W 123°01'3 5.9
2018-Feb-18 23:00N 46°10' W 123°05'3 5.9
2018-Feb-18 22:30N 46°11' W 123°08'3 5.8
2018-Feb-18 22:00N 46°10' W 123°12'3 5.8
2018-Feb-18 21:30N 46°09' W 123°16'3 5.8
2018-Feb-18 21:01N 46°09' W 123°20'3 5.7
2018-Feb-18 20:31N 46°09' W 123°24'1 1.1
2018-Feb-18 20:00N 46°10' W 123°25'0 0.1
2018-Feb-18 19:30N 46°10' W 123°24'0 0.0
2018-Feb-18 19:00N 46°10' W 123°24'0 0.0
2018-Feb-18 18:31N 46°10' W 123°24'0 0.0
2018-Feb-18 18:00N 46°10' W 123°24'0 0.1
2018-Feb-18 17:31N 46°10' W 123°24'1 2.3
2018-Feb-18 17:01N 46°09' W 123°23'5 9.5
2018-Feb-18 16:30N 46°09' W 123°16'510.0
2018-Feb-18 16:00N 46°11' W 123°10'5 9.2
2018-Feb-18 15:30N 46°09' W 123°04'5 9.1
2018-Feb-18 15:00N 46°07' W 122°59'4 8.8
2018-Feb-18 14:30N 46°04' W 122°53'4 8.7
2018-Feb-18 14:00N 46°00' W 122°51'4 8.0
2018-Feb-18 13:31N 45°57' W 122°48'4 7.6
2018-Feb-18 13:00N 45°53' W 122°48'4 7.8
2018-Feb-18 12:30N 45°49' W 122°48'4 8.2
2018-Feb-18 12:00N 45°45' W 122°46'4 8.3
2018-Feb-18 11:30N 45°41' W 122°47'3 5.8
2018-Feb-18 11:00N 45°38' W 122°47'1 1.9
2018-Feb-18 10:30N 45°37' W 122°47'0 0.0
2018-Feb-18 09:48N 45°37' W 122°47'2 5.4
2018-Feb-18 09:31N 45°36' W 122°46'2 4.3
2018-Feb-18 09:00N 45°34' W 122°44'0 0.0
2018-Feb-18 08:30N 45°34' W 122°44'0 0.2
2018-Feb-18 08:00N 45°34' W 122°44'1 2.1
2018-Feb-18 07:30N 45°35' W 122°45'3 5.4
2018-Feb-18 07:00N 45°37' W 122°47'0 0.1
2018-Feb-18 06:30N 45°37' W 122°47'0 0.2
2018-Feb-18 06:00N 45°37' W 122°47'1 2.5
2018-Feb-18 05:30N 45°38' W 122°47'2 3.2
2018-Feb-18 05:00N 45°40' W 122°46'2 4.1
2018-Feb-18 04:30N 45°42' W 122°46'2 4.1
2018-Feb-18 04:00N 45°44' W 122°46'2 4.3
2018-Feb-18 03:30N 45°46' W 122°46'2 4.3
2018-Feb-18 03:00N 45°48' W 122°47'2 4.3
2018-Feb-18 02:30N 45°50' W 122°47'2 4.1
2018-Feb-18 02:00N 45°52' W 122°47'2 4.7
2018-Feb-18 01:30N 45°54' W 122°49'2 4.8
2018-Feb-18 01:00N 45°57' W 122°48'4 5.1
2018-Feb-18 00:11N 46°01' W 122°51'2 5.3
2018-Feb-17 23:49N 46°02' W 122°53'2 5.2
2018-Feb-17 23:30N 46°04' W 122°53'3 5.1
2018-Feb-17 23:00N 46°06' W 122°56'3 5.2
2018-Feb-17 22:30N 46°07' W 122°59'2 5.0
2018-Feb-17 22:00N 46°08' W 123°02'2 4.9
2018-Feb-17 21:30N 46°10' W 123°05'3 5.3
2018-Feb-17 21:00N 46°11' W 123°08'3 5.7
2018-Feb-17 20:30N 46°11' W 123°12'3 5.5
2018-Feb-17 20:00N 46°09' W 123°15'3 5.5
2018-Feb-17 19:31N 46°09' W 123°19'4 4.2
2018-Feb-17 18:37N 46°10' W 123°25'0 0.4
2018-Feb-17 18:30N 46°10' W 123°25'0 0.4
2018-Feb-17 18:00N 46°10' W 123°24'0 0.4
2018-Feb-17 17:30N 46°10' W 123°24'3 6.4
2018-Feb-17 17:00N 46°09' W 123°20'4 8.8
2018-Feb-17 16:30N 46°10' W 123°14'4 8.5
2018-Feb-17 16:00N 46°11' W 123°08'4 8.4
2018-Feb-17 15:30N 46°09' W 123°03'4 8.3
2018-Feb-17 15:00N 46°06' W 122°58'4 7.9
2018-Feb-17 14:30N 46°04' W 122°53'4 7.7
2018-Feb-17 14:00N 46°01' W 122°51'4 7.6
2018-Feb-17 13:30N 45°57' W 122°49'5 7.4
2018-Feb-17 12:50N 45°52' W 122°47'6 7.5
2018-Feb-17 12:05N 45°47' W 122°46'213.1
2018-Feb-17 11:56N 45°45' W 122°46'3 6.5
2018-Feb-17 11:28N 45°42' W 122°46'5 4.3
2018-Feb-17 10:22N 45°37' W 122°47'0 0.0
2018-Feb-17 10:00N 45°37' W 122°47'0 0.0
2018-Feb-17 09:31N 45°37' W 122°47'0 0.0
2018-Feb-17 09:00N 45°37' W 122°47'0 0.0
2018-Feb-17 08:30N 45°37' W 122°47'0 0.0
2018-Feb-17 08:00N 45°37' W 122°47'3 5.2
2018-Feb-17 07:31N 45°39' W 122°45'1 1.3
2018-Feb-17 07:00N 45°39' W 122°45'0 0.9
2018-Feb-17 06:30N 45°39' W 122°44'0 0.7
2018-Feb-17 06:00N 45°39' W 122°45'2 4.6
2018-Feb-17 05:30N 45°37' W 122°47'0 0.2
2018-Feb-17 05:00N 45°37' W 122°47'0 0.1
2018-Feb-17 04:30N 45°37' W 122°47'2 4.4
2018-Feb-17 03:58N 45°39' W 122°45'4 5.7
2018-Feb-17 03:16N 45°35' W 122°46'2 7.2
2018-Feb-17 03:00N 45°34' W 122°44'3 5.7
2018-Feb-17 02:31N 45°32' W 122°40'4 7.9
2018-Feb-17 02:00N 45°35' W 122°45'3 6.2
2018-Feb-17 01:30N 45°37' W 122°47'0 0.0
2018-Feb-17 01:00N 45°37' W 122°47'0 0.0
2018-Feb-17 00:31N 45°37' W 122°47'3 5.2
2018-Feb-17 00:00N 45°39' W 122°44'0 0.0
2018-Feb-16 23:29N 45°39' W 122°44'0 0.0
2018-Feb-16 23:00N 45°39' W 122°44'2 3.4
2018-Feb-16 22:30N 45°38' W 122°42'1 2.9
2018-Feb-16 22:00N 45°39' W 122°44'2 3.4
2018-Feb-16 21:30N 45°38' W 122°47'4 8.1
2018-Feb-16 21:01N 45°35' W 122°45'3 6.6
2018-Feb-16 20:30N 45°32' W 122°41'0 0.7
2018-Feb-16 20:01N 45°32' W 122°41'3 5.2
2018-Feb-16 19:30N 45°34' W 122°44'2 3.2
2018-Feb-16 19:00N 45°35' W 122°45'4 7.6
2018-Feb-16 18:30N 45°39' W 122°47'1 2.8
2018-Feb-16 17:58N 45°39' W 122°44'0 0.0
2018-Feb-16 17:30N 45°39' W 122°44'0 0.0
2018-Feb-16 17:00N 45°39' W 122°44'0 0.0
2018-Feb-16 16:10N 45°39' W 122°44'0 0.0
2018-Feb-16 15:52N 45°39' W 122°44'0 0.0
2018-Feb-16 15:30N 45°39' W 122°44'0 0.0
2018-Feb-16 15:00N 45°39' W 122°44'0 0.0
2018-Feb-16 14:30N 45°39' W 122°44'0 0.0
2018-Feb-16 14:00N 45°39' W 122°44'1 1.7
2018-Feb-16 13:30N 45°39' W 122°45'4 8.2
2018-Feb-16 13:00N 45°35' W 122°46'5 9.7
2018-Feb-16 12:30N 45°32' W 122°40'1 1.6
2018-Feb-16 12:00N 45°33' W 122°41'2 4.8
2018-Feb-16 11:30N 45°34' W 122°44'1 1.1
2018-Feb-16 11:01N 45°34' W 122°45'3 5.8
2018-Feb-16 10:30N 45°37' W 122°47'3 5.5
2018-Feb-16 10:00N 45°39' W 122°46'2 2.1
2018-Feb-16 09:03N 45°38' W 122°43'0 7.5
2018-Feb-16 09:00N 45°38' W 122°44'3 5.4
2018-Feb-16 08:30N 45°37' W 122°47'0 0.1
2018-Feb-16 08:00N 45°37' W 122°47'3 6.1
2018-Feb-16 07:30N 45°40' W 122°46'3 6.3
2018-Feb-16 07:00N 45°43' W 122°46'3 6.4
2018-Feb-16 06:30N 45°47' W 122°46'3 6.3
2018-Feb-16 06:00N 45°50' W 122°48'3 6.0
2018-Feb-16 05:30N 45°53' W 122°48'3 5.9
2018-Feb-16 05:01N 45°55' W 122°49'3 5.8
2018-Feb-16 04:30N 45°58' W 122°50'3 6.2
2018-Feb-16 04:00N 46°01' W 122°52'3 5.7
2018-Feb-16 03:30N 46°04' W 122°53'3 5.7
2018-Feb-16 03:00N 46°06' W 122°56'3 6.2
2018-Feb-16 02:29N 46°08' W 122°60'3 6.0
2018-Feb-16 02:00N 46°09' W 123°03'3 6.4
2018-Feb-16 01:30N 46°11' W 123°07'3 6.0
2018-Feb-16 01:00N 46°11' W 123°11'4 6.4
2018-Feb-16 00:24N 46°09' W 123°16'3 6.9
2018-Feb-16 00:00N 46°09' W 123°20'3 6.5
2018-Feb-15 23:30N 46°10' W 123°25'0 0.9
2018-Feb-15 23:00N 46°09' W 123°24'0 0.0
2018-Feb-15 22:30N 46°09' W 123°24'0 0.0
2018-Feb-15 22:00N 46°09' W 123°24'0 0.0
2018-Feb-15 21:30N 46°09' W 123°24'0 0.0
2018-Feb-15 21:00N 46°09' W 123°24'0 0.0
2018-Feb-15 20:30N 46°09' W 123°24'0 0.0
2018-Feb-15 20:00N 46°09' W 123°24'0 0.0
2018-Feb-15 19:30N 46°09' W 123°24'0 0.9
2018-Feb-15 19:01N 46°10' W 123°25'0 0.0
2018-Feb-15 18:20N 46°10' W 123°25'0 0.0
2018-Feb-15 18:00N 46°10' W 123°25'0 0.1
2018-Feb-15 17:30N 46°10' W 123°25'2 4.0
2018-Feb-15 17:00N 46°09' W 123°22'510.0
2018-Feb-15 16:30N 46°10' W 123°15'510.3
2018-Feb-15 16:00N 46°11' W 123°08'5 9.3
2018-Feb-15 15:30N 46°09' W 123°02'4 8.8
2018-Feb-15 15:00N 46°06' W 122°57'4 8.4
2018-Feb-15 14:30N 46°03' W 122°53'4 8.4
2018-Feb-15 14:00N 45°59' W 122°50'4 8.2
2018-Feb-15 13:30N 45°55' W 122°48'2 3.1
2018-Feb-15 13:00N 45°54' W 122°48'4 7.7
2018-Feb-15 12:30N 45°50' W 122°47'4 7.6
2018-Feb-15 12:00N 45°47' W 122°46'4 7.5
2018-Feb-15 11:28N 45°42' W 122°46'4 6.9
2018-Feb-15 10:54N 45°39' W 122°47'2 4.0
2018-Feb-15 10:30N 45°37' W 122°47'2 4.9
2018-Feb-15 10:01N 45°39' W 122°45'1 1.2
2018-Feb-15 09:30N 45°39' W 122°44'0 0.0
2018-Feb-15 09:00N 45°39' W 122°44'0 0.0
2018-Feb-15 08:30N 45°39' W 122°44'0 0.0
2018-Feb-15 07:59N 45°39' W 122°44'0 0.0
2018-Feb-15 07:30N 45°39' W 122°44'0 0.0
2018-Feb-15 07:00N 45°39' W 122°44'3 5.0
2018-Feb-15 06:30N 45°37' W 122°47'0 0.4
2018-Feb-15 05:59N 45°37' W 122°47'0 0.4
2018-Feb-15 05:31N 45°37' W 122°47'1 2.1
2018-Feb-15 05:00N 45°38' W 122°47'3 6.8
2018-Feb-15 04:31N 45°42' W 122°46'4 6.9
2018-Feb-15 04:00N 45°45' W 122°46'3 7.0
2018-Feb-15 03:30N 45°48' W 122°48'3 6.6
2018-Feb-15 03:00N 45°52' W 122°47'3 5.6
2018-Feb-15 02:30N 45°54' W 122°49'1 1.8
2018-Feb-15 02:00N 45°55' W 122°49'3 5.0
2018-Feb-15 01:30N 45°58' W 122°49'2 4.9
2018-Feb-15 01:00N 45°60' W 122°51'3 5.1
2018-Feb-15 00:30N 46°02' W 122°53'2 4.9
2018-Feb-15 00:01N 46°04' W 122°54'3 5.0
2018-Feb-14 23:30N 46°06' W 122°57'3 5.2
2018-Feb-14 23:00N 46°07' W 122°60'3 5.3
2018-Feb-14 22:30N 46°09' W 123°03'3 5.5
2018-Feb-14 22:00N 46°10' W 123°06'3 5.4
2018-Feb-14 21:30N 46°11' W 123°10'3 5.6
2018-Feb-14 21:00N 46°10' W 123°14'3 5.5
2018-Feb-14 20:30N 46°09' W 123°17'3 5.6
2018-Feb-14 20:01N 46°09' W 123°21'2 4.0
2018-Feb-14 19:30N 46°10' W 123°24'1 0.9
2018-Feb-14 18:54N 46°10' W 123°25'0 0.1
2018-Feb-14 18:30N 46°10' W 123°25'0 0.1
2018-Feb-14 18:00N 46°10' W 123°24'0 0.6
2018-Feb-14 17:30N 46°10' W 123°24'2 3.4
2018-Feb-14 17:00N 46°09' W 123°22'5 9.6
2018-Feb-14 16:30N 46°09' W 123°15'7 9.1
2018-Feb-14 15:47N 46°10' W 123°06'310.2
2018-Feb-14 15:30N 46°09' W 123°02'510.0
2018-Feb-14 15:00N 46°06' W 122°56'3 6.3
2018-Feb-14 14:30N 46°04' W 122°53'4 8.4
2018-Feb-14 14:00N 45°60' W 122°51'4 8.0
2018-Feb-14 13:30N 45°56' W 122°48'4 8.0
2018-Feb-14 13:00N 45°52' W 122°47'4 7.8
2018-Feb-14 12:30N 45°48' W 122°47'4 7.8
2018-Feb-14 12:00N 45°45' W 122°46'4 8.0
2018-Feb-14 11:30N 45°40' W 122°46'3 6.2
2018-Feb-14 11:00N 45°38' W 122°47'0 0.8
2018-Feb-14 10:30N 45°37' W 122°47'0 0.0
2018-Feb-14 10:00N 45°37' W 122°47'0 0.0
2018-Feb-14 09:30N 45°37' W 122°47'1 2.5
2018-Feb-14 09:00N 45°36' W 122°47'4 7.5
2018-Feb-14 08:30N 45°33' W 122°43'0 0.8
2018-Feb-14 08:01N 45°33' W 122°42'3 6.4
2018-Feb-14 07:31N 45°35' W 122°46'2 4.6
2018-Feb-14 07:00N 45°37' W 122°47'0 0.4
2018-Feb-14 06:30N 45°37' W 122°47'0 0.3
2018-Feb-14 06:00N 45°37' W 122°47'0 0.4
2018-Feb-14 05:30N 45°37' W 122°47'3 6.1
2018-Feb-14 05:00N 45°40' W 122°46'3 5.7
2018-Feb-14 04:30N 45°43' W 122°46'3 5.9
2018-Feb-14 04:00N 45°46' W 122°46'3 5.7
2018-Feb-14 03:30N 45°49' W 122°48'3 5.7
2018-Feb-14 03:00N 45°52' W 122°47'3 5.4
2018-Feb-14 02:30N 45°54' W 122°49'3 5.4
2018-Feb-14 02:00N 45°57' W 122°49'3 5.7
2018-Feb-14 01:30N 45°59' W 122°51'3 5.7
2018-Feb-14 01:00N 46°02' W 122°53'3 5.6
2018-Feb-14 00:30N 46°04' W 122°54'3 5.5
2018-Feb-14 00:00N 46°06' W 122°57'3 5.7
2018-Feb-13 23:30N 46°08' W 123°00'3 5.7
2018-Feb-13 23:00N 46°09' W 123°04'3 6.0
2018-Feb-13 22:30N 46°11' W 123°08'710.8
2018-Feb-13 21:53N 46°09' W 123°17'0 0.0
2018-Feb-13 21:19N 46°09' W 123°17'5 6.4
2018-Feb-13 20:36N 46°09' W 123°24'1 6.5
2018-Feb-13 20:31N 46°10' W 123°24'0 0.5
2018-Feb-13 20:00N 46°10' W 123°25'0 0.0
2018-Feb-13 19:30N 46°10' W 123°25'0 0.0
2018-Feb-13 19:00N 46°10' W 123°25'  
Track history (hours):
 
Tides and Currents Weather Stations Pressure Air Temp Water Temp Dewpoint Dewpoint Depression Visibility Wind Speed Wind Dir Waves Ship Positions

Liberty

Owner: Tidewater Barge Lines Inc., Vancouver, WA. More information available from US FCC via Universal Licensing System and Coast Guard Vessel Documentation Center.

Last reported at 2018-Feb-23 18:30 UTC. Time now 2018-Feb-23 18:45 UTC.
Position N 46°04' W 122°53'.

Length 34 m; draft 3 m.

Type: Towing. MMSI: 2142822.

Date/timePositionNaut miles runAvg speedWind from/ knotsBaromVisibWave heightAir tempDewpointWater temp
2018-Feb-23 18:30N 46°04' W 122°53'5 9.6
2018-Feb-23 18:00N 45°59' W 122°50'0 0.0
2018-Feb-23 17:30N 45°59' W 122°50'0 0.0
2018-Feb-23 17:00N 45°59' W 122°50'0 0.0
2018-Feb-23 16:30N 45°59' W 122°50'0 0.0
2018-Feb-23 16:00N 45°59' W 122°50'0 0.0
2018-Feb-23 15:30N 45°59' W 122°50'0 0.0
2018-Feb-23 15:00N 45°59' W 122°50'0 0.0
2018-Feb-23 14:30N 45°59' W 122°50'0 0.0
2018-Feb-23 14:00N 45°59' W 122°50'0 0.0
2018-Feb-23 13:30N 45°59' W 122°50'0 0.0
2018-Feb-23 13:00N 45°59' W 122°50'0 0.0
2018-Feb-23 12:30N 45°59' W 122°50'0 0.9
2018-Feb-23 12:00N 45°59' W 122°50'4 8.6
2018-Feb-23 11:30N 45°55' W 122°49'6 8.7
2018-Feb-23 10:48N 45°49' W 122°48'4 8.5
2018-Feb-23 10:22N 45°45' W 122°46'3 8.8
2018-Feb-23 10:00N 45°42' W 122°46'5 6.8
2018-Feb-23 09:15N 45°37' W 122°47'0 0.0
2018-Feb-23 09:00N 45°37' W 122°47'1 2.9
2018-Feb-23 08:30N 45°38' W 122°47'2 3.3
2018-Feb-23 08:00N 45°38' W 122°44'0 0.1
2018-Feb-23 07:16N 45°39' W 122°44'1 4.5
2018-Feb-23 07:00N 45°39' W 122°46'2 3.9
2018-Feb-23 06:27N 45°37' W 122°47'0 0.4
2018-Feb-23 06:00N 45°37' W 122°47'0 0.4
2018-Feb-23 05:30N 45°37' W 122°47'2 4.3
2018-Feb-23 05:00N 45°39' W 122°46'3 6.8
2018-Feb-23 04:30N 45°43' W 122°46'3 6.9
2018-Feb-23 04:00N 45°46' W 122°46'4 6.8
2018-Feb-23 03:27N 45°50' W 122°48'3 6.6
2018-Feb-23 03:00N 45°53' W 122°48'3 6.3
2018-Feb-23 02:29N 45°56' W 122°48'3 6.5
2018-Feb-23 02:00N 45°59' W 122°50'5 6.5
2018-Feb-23 01:15N 46°03' W 122°53'1 6.1
2018-Feb-23 01:00N 46°05' W 122°54'3 6.3
2018-Feb-23 00:30N 46°06' W 122°58'4 6.2
2018-Feb-22 23:54N 46°09' W 123°02'2 6.1
2018-Feb-22 23:30N 46°10' W 123°05'3 5.9
2018-Feb-22 23:00N 46°11' W 123°09'3 5.7
2018-Feb-22 22:30N 46°10' W 123°13'3 5.4
2018-Feb-22 22:00N 46°09' W 123°16'4 6.2
2018-Feb-22 21:26N 46°09' W 123°21'2 5.7
2018-Feb-22 21:00N 46°10' W 123°24'0 0.4
2018-Feb-22 20:31N 46°10' W 123°24'5 8.2
2018-Feb-22 19:57N 46°09' W 123°18'512.2
2018-Feb-22 19:30N 46°11' W 123°11'1011.2
2018-Feb-22 18:39N 46°07' W 122°58'211.4
2018-Feb-22 18:30N 46°06' W 122°57'510.3
2018-Feb-22 18:00N 46°01' W 122°52'3 5.3
2018-Feb-22 17:30N 45°59' W 122°50'0 0.3
2018-Feb-22 17:00N 45°59' W 122°50'0 0.8
2018-Feb-22 16:30N 45°59' W 122°51'0 0.0
2018-Feb-22 16:00N 45°59' W 122°51'0 0.0
2018-Feb-22 15:30N 45°59' W 122°51'0 0.0
2018-Feb-22 15:00N 45°59' W 122°51'0 0.0
2018-Feb-22 14:30N 45°59' W 122°51'0 0.0
2018-Feb-22 14:00N 45°59' W 122°51'0 0.0
2018-Feb-22 13:30N 45°59' W 122°51'1 1.9
2018-Feb-22 13:00N 46°00' W 122°51'2 2.4
2018-Feb-22 12:23N 46°02' W 122°52'0 0.6
2018-Feb-22 12:00N 46°01' W 122°52'2 4.6
2018-Feb-22 11:29N 45°59' W 122°50'1 3.1
2018-Feb-22 11:00N 45°58' W 122°49'5 9.2
2018-Feb-22 10:30N 45°54' W 122°48'5 9.2
2018-Feb-22 10:00N 45°49' W 122°48'5 9.1
2018-Feb-22 09:31N 45°45' W 122°46'5 9.1
2018-Feb-22 09:00N 45°40' W 122°46'1 1.8
2018-Feb-22 08:30N 45°39' W 122°45'0 0.2
2018-Feb-22 08:00N 45°39' W 122°45'3 5.3
2018-Feb-22 07:30N 45°37' W 122°47'0 0.2
2018-Feb-22 07:00N 45°37' W 122°47'0 0.1
2018-Feb-22 06:30N 45°37' W 122°47'1 2.1
2018-Feb-22 06:00N 45°38' W 122°47'2 4.3
2018-Feb-22 05:30N 45°40' W 122°46'3 6.2
2018-Feb-22 05:00N 45°43' W 122°46'3 6.5
2018-Feb-22 04:30N 45°47' W 122°46'3 6.4
2018-Feb-22 04:00N 45°50' W 122°47'3 6.3
2018-Feb-22 03:30N 45°53' W 122°48'3 6.5
2018-Feb-22 03:00N 45°56' W 122°48'3 6.5
2018-Feb-22 02:30N 45°59' W 122°51'3 6.4
2018-Feb-22 02:01N 46°02' W 122°53'3 6.2
2018-Feb-22 01:30N 46°05' W 122°54'3 6.2
2018-Feb-22 01:00N 46°07' W 122°58'3 6.2
2018-Feb-22 00:30N 46°08' W 123°02'3 6.1
2018-Feb-22 00:01N 46°10' W 123°05'3 6.0
2018-Feb-21 23:30N 46°11' W 123°09'3 6.0
2018-Feb-21 23:00N 46°10' W 123°13'3 5.1
2018-Feb-21 22:30N 46°09' W 123°16'3 5.5
2018-Feb-21 22:00N 46°09' W 123°20'3 5.7
2018-Feb-21 21:31N 46°10' W 123°24'0 0.9
2018-Feb-21 21:00N 46°10' W 123°25'0 0.1
2018-Feb-21 20:31N 46°10' W 123°25'0 0.0
2018-Feb-21 20:00N 46°10' W 123°25'0 0.0
2018-Feb-21 19:30N 46°10' W 123°25'0 0.0
2018-Feb-21 19:00N 46°10' W 123°25'0 0.0
2018-Feb-21 18:26N 46°10' W 123°25'0 0.0
2018-Feb-21 17:52N 46°10' W 123°25'0 0.2
2018-Feb-21 17:29N 46°10' W 123°25'1 1.2
2018-Feb-21 17:00N 46°09' W 123°24'3 6.5
2018-Feb-21 16:30N 46°09' W 123°19'3 6.4
2018-Feb-21 16:00N 46°09' W 123°15'3 6.3
2018-Feb-21 15:30N 46°11' W 123°11'3 5.5
2018-Feb-21 15:00N 46°11' W 123°07'3 5.6
2018-Feb-21 14:30N 46°09' W 123°04'3 5.6
2018-Feb-21 14:00N 46°08' W 123°00'3 6.1
2018-Feb-21 13:30N 46°06' W 122°57'2 4.9
2018-Feb-21 13:00N 46°05' W 122°54'2 4.3
2018-Feb-21 12:30N 46°03' W 122°53'2 4.9
2018-Feb-21 12:00N 46°00' W 122°51'2 4.9
2018-Feb-21 11:30N 45°58' W 122°50'3 5.2
2018-Feb-21 11:00N 45°56' W 122°48'1 2.2
2018-Feb-21 10:30N 45°55' W 122°49'0 0.0
2018-Feb-21 10:00N 45°55' W 122°49'1 1.8
2018-Feb-21 09:30N 45°54' W 122°48'5 9.5
2018-Feb-21 09:00N 45°49' W 122°48'7 9.4
2018-Feb-21 08:15N 45°42' W 122°46'2 8.9
2018-Feb-21 08:00N 45°40' W 122°46'1 2.0
2018-Feb-21 07:28N 45°39' W 122°45'2 2.6
2018-Feb-21 06:32N 45°37' W 122°47'0 0.0
2018-Feb-21 06:30N 45°37' W 122°47'0 0.0
2018-Feb-21 06:00N 45°37' W 122°47'3 6.9
2018-Feb-21 05:30N 45°34' W 122°45'2 3.7
2018-Feb-21 05:00N 45°33' W 122°43'1 2.5
2018-Feb-21 04:27N 45°34' W 122°44'0 0.0
2018-Feb-21 04:00N 45°34' W 122°44'0 0.0
2018-Feb-21 03:30N 45°34' W 122°44'0 0.0
2018-Feb-21 03:00N 45°34' W 122°44'0 0.0
2018-Feb-21 02:30N 45°34' W 122°44'0 0.0
2018-Feb-21 02:00N 45°34' W 122°44'0 0.7
2018-Feb-21 01:30N 45°34' W 122°44'3 6.2
2018-Feb-21 01:00N 45°32' W 122°40'4 7.6
2018-Feb-21 00:30N 45°34' W 122°44'4 8.2
2018-Feb-21 00:00N 45°38' W 122°47'2 4.3
2018-Feb-20 23:30N 45°39' W 122°45'0 0.4
2018-Feb-20 23:00N 45°39' W 122°45'4 5.6
2018-Feb-20 22:23N 45°36' W 122°46'2 5.7
2018-Feb-20 22:00N 45°34' W 122°44'3 5.4
2018-Feb-20 21:30N 45°36' W 122°47'3 6.3
2018-Feb-20 21:00N 45°39' W 122°45'0 0.3
2018-Feb-20 20:30N 45°39' W 122°45'0 0.3
2018-Feb-20 20:00N 45°39' W 122°44'0 0.0
2018-Feb-20 19:30N 45°39' W 122°44'0 0.0
2018-Feb-20 19:00N 45°39' W 122°44'0 0.0
2018-Feb-20 18:30N 45°39' W 122°44'0 0.0
2018-Feb-20 18:00N 45°39' W 122°44'0 0.0
2018-Feb-20 17:30N 45°39' W 122°44'0 0.6
2018-Feb-20 17:00N 45°39' W 122°44'1 1.2
2018-Feb-20 16:30N 45°39' W 122°45'3 5.6
2018-Feb-20 16:00N 45°36' W 122°47'4 7.0
2018-Feb-20 15:26N 45°34' W 122°43'2 5.4
2018-Feb-20 15:00N 45°32' W 122°40'0 0.0
2018-Feb-20 14:30N 45°32' W 122°40'2 4.3
2018-Feb-20 14:00N 45°33' W 122°43'1 2.0
2018-Feb-20 13:30N 45°34' W 122°44'0 0.0
2018-Feb-20 13:00N 45°34' W 122°44'0 0.0
2018-Feb-20 12:30N 45°34' W 122°44'0 0.0
2018-Feb-20 12:00N 45°34' W 122°44'2 3.5
2018-Feb-20 11:30N 45°35' W 122°46'2 4.6
2018-Feb-20 11:00N 45°37' W 122°47'0 0.2
2018-Feb-20 10:30N 45°37' W 122°47'3 6.1
2018-Feb-20 10:00N 45°40' W 122°46'3 6.5
2018-Feb-20 09:30N 45°43' W 122°46'3 6.6
2018-Feb-20 09:00N 45°47' W 122°46'3 6.4
2018-Feb-20 08:30N 45°50' W 122°48'3 6.1
2018-Feb-20 08:00N 45°53' W 122°48'3 6.0
2018-Feb-20 07:30N 45°56' W 122°48'3 6.1
2018-Feb-20 07:00N 45°59' W 122°50'3 6.3
2018-Feb-20 06:30N 46°01' W 122°52'3 6.1
2018-Feb-20 06:00N 46°04' W 122°54'3 6.1
2018-Feb-20 05:30N 46°06' W 122°57'3 6.4
2018-Feb-20 05:00N 46°08' W 123°01'3 6.2
2018-Feb-20 04:30N 46°10' W 123°05'3 6.3
2018-Feb-20 04:00N 46°11' W 123°09'3 6.3
2018-Feb-20 03:30N 46°10' W 123°13'3 6.3
2018-Feb-20 03:00N 46°09' W 123°17'3 6.9
2018-Feb-20 02:30N 46°09' W 123°22'2 3.4
2018-Feb-20 02:00N 46°10' W 123°24'2 4.3
2018-Feb-20 01:30N 46°09' W 123°22'5 9.9
2018-Feb-20 01:00N 46°10' W 123°15'5 9.6
2018-Feb-20 00:30N 46°11' W 123°08'5 9.9
2018-Feb-20 00:00N 46°09' W 123°02'510.6
2018-Feb-19 23:30N 46°06' W 122°55'510.6
2018-Feb-19 23:00N 46°01' W 122°52'511.0
2018-Feb-19 22:30N 45°56' W 122°48'611.2
2018-Feb-19 22:00N 45°50' W 122°47'510.6
2018-Feb-19 21:30N 45°45' W 122°46'510.7
2018-Feb-19 21:00N 45°40' W 122°46'3 5.8
2018-Feb-19 20:30N 45°37' W 122°47'3 5.3
2018-Feb-19 20:00N 45°39' W 122°44'0 0.0
2018-Feb-19 18:58N 45°39' W 122°44'0 0.0
2018-Feb-19 18:10N 45°39' W 122°44'0 0.0
2018-Feb-19 18:00N 45°39' W 122°44'0 0.0
2018-Feb-19 17:30N 45°39' W 122°44'0 0.0
2018-Feb-19 17:00N 45°39' W 122°44'0 0.0
2018-Feb-19 16:30N 45°39' W 122°44'0 0.0
2018-Feb-19 16:00N 45°39' W 122°44'0 0.0
2018-Feb-19 15:28N 45°39' W 122°44'0 0.0
2018-Feb-19 15:00N 45°39' W 122°44'0 0.0
2018-Feb-19 14:30N 45°39' W 122°44'0 0.0
2018-Feb-19 14:00N 45°39' W 122°44'0 0.0
2018-Feb-19 13:30N 45°39' W 122°44'0 0.0
2018-Feb-19 13:00N 45°39' W 122°44'0 0.0
2018-Feb-19 12:30N 45°39' W 122°44'0 0.0
2018-Feb-19 12:00N 45°39' W 122°44'0 0.0
2018-Feb-19 10:49N 45°39' W 122°44'0 0.0
2018-Feb-19 10:30N 45°39' W 122°44'0 0.0
2018-Feb-19 10:00N 45°39' W 122°44'0 0.0
2018-Feb-19 09:19N 45°39' W 122°44'0 0.1
2018-Feb-19 09:00N 45°39' W 122°44'0 0.9
2018-Feb-19 08:30N 45°39' W 122°45'3 6.3
2018-Feb-19 08:00N 45°36' W 122°47'4 8.0
2018-Feb-19 07:30N 45°33' W 122°43'3 5.1
2018-Feb-19 06:57N 45°35' W 122°46'2 5.4
2018-Feb-19 06:30N 45°37' W 122°47'0 0.5
2018-Feb-19 06:00N 45°37' W 122°47'0 0.2
2018-Feb-19 05:18N 45°37' W 122°47'2 6.1
2018-Feb-19 05:00N 45°39' W 122°46'3 5.7
2018-Feb-19 04:29N 45°42' W 122°46'3 5.7
2018-Feb-19 04:00N 45°45' W 122°46'3 5.8
2018-Feb-19 03:30N 45°47' W 122°47'3 5.7
2018-Feb-19 03:00N 45°50' W 122°47'3 5.7
2018-Feb-19 02:30N 45°53' W 122°48'3 6.0
2018-Feb-19 02:00N 45°56' W 122°48'3 6.0
2018-Feb-19 01:30N 45°59' W 122°50'3 6.3
2018-Feb-19 01:00N 46°01' W 122°52'3 6.2
2018-Feb-19 00:30N 46°04' W 122°54'3 6.1
2018-Feb-19 00:00N 46°06' W 122°57'3 6.1
2018-Feb-18 23:30N 46°08' W 123°01'3 5.9
2018-Feb-18 23:00N 46°10' W 123°05'3 5.9
2018-Feb-18 22:30N 46°11' W 123°08'3 5.8
2018-Feb-18 22:00N 46°10' W 123°12'3 5.8
2018-Feb-18 21:30N 46°09' W 123°16'3 5.8
2018-Feb-18 21:01N 46°09' W 123°20'3 5.7
2018-Feb-18 20:31N 46°09' W 123°24'1 1.1
2018-Feb-18 20:00N 46°10' W 123°25'0 0.1
2018-Feb-18 19:30N 46°10' W 123°24'0 0.0
2018-Feb-18 19:00N 46°10' W 123°24'0 0.0
2018-Feb-18 18:31N 46°10' W 123°24'0 0.0
2018-Feb-18 18:00N 46°10' W 123°24'0 0.1
2018-Feb-18 17:31N 46°10' W 123°24'1 2.3
2018-Feb-18 17:01N 46°09' W 123°23'5 9.5
2018-Feb-18 16:30N 46°09' W 123°16'510.0
2018-Feb-18 16:00N 46°11' W 123°10'5 9.2
2018-Feb-18 15:30N 46°09' W 123°04'5 9.1
2018-Feb-18 15:00N 46°07' W 122°59'4 8.8
2018-Feb-18 14:30N 46°04' W 122°53'4 8.7
2018-Feb-18 14:00N 46°00' W 122°51'4 8.0
2018-Feb-18 13:31N 45°57' W 122°48'4 7.6
2018-Feb-18 13:00N 45°53' W 122°48'4 7.8
2018-Feb-18 12:30N 45°49' W 122°48'4 8.2
2018-Feb-18 12:00N 45°45' W 122°46'4 8.3
2018-Feb-18 11:30N 45°41' W 122°47'3 5.8
2018-Feb-18 11:00N 45°38' W 122°47'1 1.9
2018-Feb-18 10:30N 45°37' W 122°47'0 0.0
2018-Feb-18 09:48N 45°37' W 122°47'2 5.4
2018-Feb-18 09:31N 45°36' W 122°46'2 4.3
2018-Feb-18 09:00N 45°34' W 122°44'0 0.0
2018-Feb-18 08:30N 45°34' W 122°44'0 0.2
2018-Feb-18 08:00N 45°34' W 122°44'1 2.1
2018-Feb-18 07:30N 45°35' W 122°45'3 5.4
2018-Feb-18 07:00N 45°37' W 122°47'0 0.1
2018-Feb-18 06:30N 45°37' W 122°47'0 0.2
2018-Feb-18 06:00N 45°37' W 122°47'1 2.5
2018-Feb-18 05:30N 45°38' W 122°47'2 3.2
2018-Feb-18 05:00N 45°40' W 122°46'2 4.1
2018-Feb-18 04:30N 45°42' W 122°46'2 4.1
2018-Feb-18 04:00N 45°44' W 122°46'2 4.3
2018-Feb-18 03:30N 45°46' W 122°46'2 4.3
2018-Feb-18 03:00N 45°48' W 122°47'2 4.3
2018-Feb-18 02:30N 45°50' W 122°47'2 4.1
2018-Feb-18 02:00N 45°52' W 122°47'2 4.7
2018-Feb-18 01:30N 45°54' W 122°49'2 4.8
2018-Feb-18 01:00N 45°57' W 122°48'4 5.1
2018-Feb-18 00:11N 46°01' W 122°51'2 5.3
2018-Feb-17 23:49N 46°02' W 122°53'2 5.2
2018-Feb-17 23:30N 46°04' W 122°53'3 5.1
2018-Feb-17 23:00N 46°06' W 122°56'3 5.2
2018-Feb-17 22:30N 46°07' W 122°59'2 5.0
2018-Feb-17 22:00N 46°08' W 123°02'2 4.9
2018-Feb-17 21:30N 46°10' W 123°05'3 5.3
2018-Feb-17 21:00N 46°11' W 123°08'3 5.7
2018-Feb-17 20:30N 46°11' W 123°12'3 5.5
2018-Feb-17 20:00N 46°09' W 123°15'3 5.5
2018-Feb-17 19:31N 46°09' W 123°19'4 4.2
2018-Feb-17 18:37N 46°10' W 123°25'0 0.4
2018-Feb-17 18:30N 46°10' W 123°25'0 0.4
2018-Feb-17 18:00N 46°10' W 123°24'0 0.4
2018-Feb-17 17:30N 46°10' W 123°24'3 6.4
2018-Feb-17 17:00N 46°09' W 123°20'4 8.8
2018-Feb-17 16:30N 46°10' W 123°14'4 8.5
2018-Feb-17 16:00N 46°11' W 123°08'4 8.4
2018-Feb-17 15:30N 46°09' W 123°03'4 8.3
2018-Feb-17 15:00N 46°06' W 122°58'4 7.9
2018-Feb-17 14:30N 46°04' W 122°53'4 7.7
2018-Feb-17 14:00N 46°01' W 122°51'4 7.6
2018-Feb-17 13:30N 45°57' W 122°49'5 7.4
2018-Feb-17 12:50N 45°52' W 122°47'6 7.5
2018-Feb-17 12:05N 45°47' W 122°46'213.1
2018-Feb-17 11:56N 45°45' W 122°46'3 6.5
2018-Feb-17 11:28N 45°42' W 122°46'5 4.3
2018-Feb-17 10:22N 45°37' W 122°47'0 0.0
2018-Feb-17 10:00N 45°37' W 122°47'0 0.0
2018-Feb-17 09:31N 45°37' W 122°47'0 0.0
2018-Feb-17 09:00N 45°37' W 122°47'0 0.0
2018-Feb-17 08:30N 45°37' W 122°47'0 0.0
2018-Feb-17 08:00N 45°37' W 122°47'3 5.2
2018-Feb-17 07:31N 45°39' W 122°45'1 1.3
2018-Feb-17 07:00N 45°39' W 122°45'0 0.9
2018-Feb-17 06:30N 45°39' W 122°44'0 0.7
2018-Feb-17 06:00N 45°39' W 122°45'2 4.6
2018-Feb-17 05:30N 45°37' W 122°47'0 0.2
2018-Feb-17 05:00N 45°37' W 122°47'0 0.1
2018-Feb-17 04:30N 45°37' W 122°47'2 4.4
2018-Feb-17 03:58N 45°39' W 122°45'4 5.7
2018-Feb-17 03:16N 45°35' W 122°46'2 7.2
2018-Feb-17 03:00N 45°34' W 122°44'3 5.7
2018-Feb-17 02:31N 45°32' W 122°40'4 7.9
2018-Feb-17 02:00N 45°35' W 122°45'3 6.2
2018-Feb-17 01:30N 45°37' W 122°47'0 0.0
2018-Feb-17 01:00N 45°37' W 122°47'0 0.0
2018-Feb-17 00:31N 45°37' W 122°47'3 5.2
2018-Feb-17 00:00N 45°39' W 122°44'0 0.0
2018-Feb-16 23:29N 45°39' W 122°44'0 0.0
2018-Feb-16 23:00N 45°39' W 122°44'2 3.4
2018-Feb-16 22:30N 45°38' W 122°42'1 2.9
2018-Feb-16 22:00N 45°39' W 122°44'2 3.4
2018-Feb-16 21:30N 45°38' W 122°47'4 8.1
2018-Feb-16 21:01N 45°35' W 122°45'3 6.6
2018-Feb-16 20:30N 45°32' W 122°41'0 0.7
2018-Feb-16 20:01N 45°32' W 122°41'3 5.2
2018-Feb-16 19:30N 45°34' W 122°44'2 3.2
2018-Feb-16 19:00N 45°35' W 122°45'4 7.6
2018-Feb-16 18:30N 45°39' W 122°47'1 2.8
2018-Feb-16 17:58N 45°39' W 122°44'0 0.0
2018-Feb-16 17:30N 45°39' W 122°44'0 0.0
2018-Feb-16 17:00N 45°39' W 122°44'0 0.0
2018-Feb-16 16:10N 45°39' W 122°44'0 0.0
2018-Feb-16 15:52N 45°39' W 122°44'0 0.0
2018-Feb-16 15:30N 45°39' W 122°44'0 0.0
2018-Feb-16 15:00N 45°39' W 122°44'0 0.0
2018-Feb-16 14:30N 45°39' W 122°44'0 0.0
2018-Feb-16 14:00N 45°39' W 122°44'1 1.7
2018-Feb-16 13:30N 45°39' W 122°45'4 8.2
2018-Feb-16 13:00N 45°35' W 122°46'5 9.7
2018-Feb-16 12:30N 45°32' W 122°40'1 1.6
2018-Feb-16 12:00N 45°33' W 122°41'2 4.8
2018-Feb-16 11:30N 45°34' W 122°44'1 1.1
2018-Feb-16 11:01N 45°34' W 122°45'3 5.8
2018-Feb-16 10:30N 45°37' W 122°47'3 5.5
2018-Feb-16 10:00N 45°39' W 122°46'2 2.1
2018-Feb-16 09:03N 45°38' W 122°43'0 7.5
2018-Feb-16 09:00N 45°38' W 122°44'3 5.4
2018-Feb-16 08:30N 45°37' W 122°47'0 0.1
2018-Feb-16 08:00N 45°37' W 122°47'3 6.1
2018-Feb-16 07:30N 45°40' W 122°46'3 6.3
2018-Feb-16 07:00N 45°43' W 122°46'3 6.4
2018-Feb-16 06:30N 45°47' W 122°46'3 6.3
2018-Feb-16 06:00N 45°50' W 122°48'3 6.0
2018-Feb-16 05:30N 45°53' W 122°48'3 5.9
2018-Feb-16 05:01N 45°55' W 122°49'3 5.8
2018-Feb-16 04:30N 45°58' W 122°50'3 6.2
2018-Feb-16 04:00N 46°01' W 122°52'3 5.7
2018-Feb-16 03:30N 46°04' W 122°53'3 5.7
2018-Feb-16 03:00N 46°06' W 122°56'3 6.2
2018-Feb-16 02:29N 46°08' W 122°60'3 6.0
2018-Feb-16 02:00N 46°09' W 123°03'3 6.4
2018-Feb-16 01:30N 46°11' W 123°07'3 6.0
2018-Feb-16 01:00N 46°11' W 123°11'4 6.4
2018-Feb-16 00:24N 46°09' W 123°16'3 6.9
2018-Feb-16 00:00N 46°09' W 123°20'3 6.5
2018-Feb-15 23:30N 46°10' W 123°25'0 0.9
2018-Feb-15 23:00N 46°09' W 123°24'0 0.0
2018-Feb-15 22:30N 46°09' W 123°24'0 0.0
2018-Feb-15 22:00N 46°09' W 123°24'0 0.0
2018-Feb-15 21:30N 46°09' W 123°24'0 0.0
2018-Feb-15 21:00N 46°09' W 123°24'0 0.0
2018-Feb-15 20:30N 46°09' W 123°24'0 0.0
2018-Feb-15 20:00N 46°09' W 123°24'0 0.0
2018-Feb-15 19:30N 46°09' W 123°24'0 0.9
2018-Feb-15 19:01N 46°10' W 123°25'0 0.0
2018-Feb-15 18:20N 46°10' W 123°25'0 0.0
2018-Feb-15 18:00N 46°10' W 123°25'0 0.1
2018-Feb-15 17:30N 46°10' W 123°25'2 4.0
2018-Feb-15 17:00N 46°09' W 123°22'510.0
2018-Feb-15 16:30N 46°10' W 123°15'510.3
2018-Feb-15 16:00N 46°11' W 123°08'5 9.3
2018-Feb-15 15:30N 46°09' W 123°02'4 8.8
2018-Feb-15 15:00N 46°06' W 122°57'4 8.4
2018-Feb-15 14:30N 46°03' W 122°53'4 8.4
2018-Feb-15 14:00N 45°59' W 122°50'4 8.2
2018-Feb-15 13:30N 45°55' W 122°48'2 3.1
2018-Feb-15 13:00N 45°54' W 122°48'4 7.7
2018-Feb-15 12:30N 45°50' W 122°47'4 7.6
2018-Feb-15 12:00N 45°47' W 122°46'4 7.5
2018-Feb-15 11:28N 45°42' W 122°46'4 6.9
2018-Feb-15 10:54N 45°39' W 122°47'2 4.0
2018-Feb-15 10:30N 45°37' W 122°47'2 4.9
2018-Feb-15 10:01N 45°39' W 122°45'1 1.2
2018-Feb-15 09:30N 45°39' W 122°44'0 0.0
2018-Feb-15 09:00N 45°39' W 122°44'0 0.0
2018-Feb-15 08:30N 45°39' W 122°44'0 0.0
2018-Feb-15 07:59N 45°39' W 122°44'0 0.0
2018-Feb-15 07:30N 45°39' W 122°44'0 0.0
2018-Feb-15 07:00N 45°39' W 122°44'3 5.0
2018-Feb-15 06:30N 45°37' W 122°47'0 0.4
2018-Feb-15 05:59N 45°37' W 122°47'0 0.4
2018-Feb-15 05:31N 45°37' W 122°47'1 2.1
2018-Feb-15 05:00N 45°38' W 122°47'3 6.8
2018-Feb-15 04:31N 45°42' W 122°46'4 6.9
2018-Feb-15 04:00N 45°45' W 122°46'3 7.0
2018-Feb-15 03:30N 45°48' W 122°48'3 6.6
2018-Feb-15 03:00N 45°52' W 122°47'3 5.6
2018-Feb-15 02:30N 45°54' W 122°49'1 1.8
2018-Feb-15 02:00N 45°55' W 122°49'3 5.0
2018-Feb-15 01:30N 45°58' W 122°49'2 4.9
2018-Feb-15 01:00N 45°60' W 122°51'3 5.1
2018-Feb-15 00:30N 46°02' W 122°53'2 4.9
2018-Feb-15 00:01N 46°04' W 122°54'3 5.0
2018-Feb-14 23:30N 46°06' W 122°57'3 5.2
2018-Feb-14 23:00N 46°07' W 122°60'3 5.3
2018-Feb-14 22:30N 46°09' W 123°03'3 5.5
2018-Feb-14 22:00N 46°10' W 123°06'3 5.4
2018-Feb-14 21:30N 46°11' W 123°10'3 5.6
2018-Feb-14 21:00N 46°10' W 123°14'3 5.5
2018-Feb-14 20:30N 46°09' W 123°17'3 5.6
2018-Feb-14 20:01N 46°09' W 123°21'2 4.0
2018-Feb-14 19:30N 46°10' W 123°24'1 0.9
2018-Feb-14 18:54N 46°10' W 123°25'0 0.1
2018-Feb-14 18:30N 46°10' W 123°25'0 0.1
2018-Feb-14 18:00N 46°10' W 123°24'0 0.6
2018-Feb-14 17:30N 46°10' W 123°24'2 3.4
2018-Feb-14 17:00N 46°09' W 123°22'5 9.6
2018-Feb-14 16:30N 46°09' W 123°15'7 9.1
2018-Feb-14 15:47N 46°10' W 123°06'310.2
2018-Feb-14 15:30N 46°09' W 123°02'510.0
2018-Feb-14 15:00N 46°06' W 122°56'3 6.3
2018-Feb-14 14:30N 46°04' W 122°53'4 8.4
2018-Feb-14 14:00N 45°60' W 122°51'4 8.0
2018-Feb-14 13:30N 45°56' W 122°48'4 8.0
2018-Feb-14 13:00N 45°52' W 122°47'4 7.8
2018-Feb-14 12:30N 45°48' W 122°47'4 7.8
2018-Feb-14 12:00N 45°45' W 122°46'4 8.0
2018-Feb-14 11:30N 45°40' W 122°46'3 6.2
2018-Feb-14 11:00N 45°38' W 122°47'0 0.8
2018-Feb-14 10:30N 45°37' W 122°47'0 0.0
2018-Feb-14 10:00N 45°37' W 122°47'0 0.0
2018-Feb-14 09:30N 45°37' W 122°47'1 2.5
2018-Feb-14 09:00N 45°36' W 122°47'4 7.5
2018-Feb-14 08:30N 45°33' W 122°43'0 0.8
2018-Feb-14 08:01N 45°33' W 122°42'3 6.4
2018-Feb-14 07:31N 45°35' W 122°46'2 4.6
2018-Feb-14 07:00N 45°37' W 122°47'0 0.4
2018-Feb-14 06:30N 45°37' W 122°47'0 0.3
2018-Feb-14 06:00N 45°37' W 122°47'0 0.4
2018-Feb-14 05:30N 45°37' W 122°47'3 6.1
2018-Feb-14 05:00N 45°40' W 122°46'3 5.7
2018-Feb-14 04:30N 45°43' W 122°46'3 5.9
2018-Feb-14 04:00N 45°46' W 122°46'3 5.7
2018-Feb-14 03:30N 45°49' W 122°48'3 5.7
2018-Feb-14 03:00N 45°52' W 122°47'3 5.4
2018-Feb-14 02:30N 45°54' W 122°49'3 5.4
2018-Feb-14 02:00N 45°57' W 122°49'3 5.7
2018-Feb-14 01:30N 45°59' W 122°51'3 5.7
2018-Feb-14 01:00N 46°02' W 122°53'3 5.6
2018-Feb-14 00:30N 46°04' W 122°54'3 5.5
2018-Feb-14 00:00N 46°06' W 122°57'3 5.7
2018-Feb-13 23:30N 46°08' W 123°00'3 5.7
2018-Feb-13 23:00N 46°09' W 123°04'3 6.0
2018-Feb-13 22:30N 46°11' W 123°08'710.8
2018-Feb-13 21:53N 46°09' W 123°17'0 0.0
2018-Feb-13 21:19N 46°09' W 123°17'5 6.4
2018-Feb-13 20:36N 46°09' W 123°24'1 6.5
2018-Feb-13 20:31N 46°10' W 123°24'0 0.5
2018-Feb-13 20:00N 46°10' W 123°25'0 0.0
2018-Feb-13 19:30N 46°10' W 123°25'0 0.0
2018-Feb-13 19:00N 46°10' W 123°25'  

Dump ship's entire track history